AirNav   Air Wisconsin pilot careers
 
 378 users online  

4R1 I H Bass Jr Memorial Airport
Lumberton, Mississippi, USA

GOING TO LUMBERTON?


FAA INFORMATION EFFECTIVE 13 SEPTEMBER 2018

Location

FAA Identifier: 4R1
Lat/Long: 31-00-55.2000N / 089-28-57.2000W
31-00.920000N / 089-28.953333W
31.0153333 / -89.4825556
(estimated)
Elevation: 310 ft. / 94.5 m (surveyed)
Variation: 02E (1985)
From city: 2 miles NW of LUMBERTON, MS
Time zone: UTC -5 (UTC -6 during Standard Time)
Zip code: 39455

Airport Operations

Airport use: Open to the public
Control tower: no
ARTCC: HOUSTON CENTER
FSS: GREENWOOD FLIGHT SERVICE STATION
NOTAMs facility: GWO (NOTAM-D service available)
Attendance: UNATNDD
Wind indicator: lighted
Segmented circle: yes
Lights: ACTVT MIRL RY 14/32 AND PAPI RYS 14 & 32 - CTAF.
Beacon: white-green (lighted land airport)
Operates sunset to sunrise.

Airport Communications

CTAF/UNICOM: 122.8
WX ASOS at HBG (19 nm NE): 135.425 (601-544-2185)

Nearby radio navigation aids

VOR radial/distance  VOR name  Freq  Var
LBYr192/25.3EATON VORTAC110.6005E
PCUr020/30.1PICAYUNE VOR/DME112.2005E

 
NDB name  Hdg/Dist  Freq  Var  ID
BOGALUSA068/21.135300WGVB --. ...- -...

Airport Services

Parking: tiedowns
Airframe service: NONE
Powerplant service: NONE
Bottled oxygen: NONE
Bulk oxygen: NONE

Runway Information

Runway 14/32

Dimensions: 3000 x 75 ft. / 914 x 23 m
Surface: asphalt, in fair condition
Weight bearing capacity: 
Single wheel: 22.0
Runway edge lights: medium intensity
RUNWAY 14  RUNWAY 32
Latitude: 31-01.120273N31-00.718557N
Longitude: 089-29.120773W089-28.785013W
Elevation: 305.0 ft.301.0 ft.
Gradient: 0.3%0.3%
Traffic pattern: leftleft
Runway heading: 142 magnetic, 144 true322 magnetic, 324 true
Markings: basic, in fair conditionbasic, in fair condition
Visual slope indicator: 2-light PAPI on left2-light PAPI on left
Obstructions: 66 ft. trees, 1520 ft. from runway, 20:1 slope to clear40 ft. trees, 1000 ft. from runway, 75 ft. left of centerline, 20:1 slope to clear

Airport Ownership and Management from official FAA records

Ownership: Publicly-owned
Owner: CITY OF LUMBERTON
P.O.BOX 211
LUMBERTON, MS 39455
Phone 601-796-8341
Manager: JOEL BRIGHTBILL
199 LOWER AIRPORT RD
LUMBERTON, MS 39455
Phone 504-453-4228
QUINCY ROGERS, MAYOR.

Airport Operational Statistics

Aircraft based on the field: 5
Single engine airplanes: 5
    
Aircraft operations: avg 115/week *
83% local general aviation
17% transient general aviation
* for 12-month period ending 10 May 2018

Instrument Procedures

There are no published instrument procedures at 4R1.

Some nearby airports with instrument procedures:

M13 - Poplarville-Pearl River County Airport (14 nm S)
KHBG - Hattiesburg Bobby L Chain Municipal Airport (19 nm NE)
KBXA - George R Carr Memorial Air Field (23 nm SW)
0R0 - Columbia-Marion County Airport (24 nm NW)
KPIB - Hattiesburg-Laurel Regional Airport (28 nm N)
 
Loc | Ops | Rwys | IFR | FBO | Links
Com | Nav | Svcs | Stats | Notes


 
Area around 4R1 (I H Bass Jr Memorial Airport)
 
Road maps at: MapQuest Bing Google
 
Aerial photo
WARNING: Photo may not be current or correct
Aerial photo of 4R1 (I H Bass Jr Memorial Airport)
Do you have a better or more recent aerial photo of I H Bass Jr Memorial Airport that you would like to share? If so, please send us your photo.

 
Sectional chart

 
Airport distance calculator
Flying to I H Bass Jr Memorial Airport? Find the distance to fly.

From to 4R1

Sunrise and sunset
Times for 26-Sep-2018
 Local
(UTC-5)
 Zulu
(UTC)
Morning civil twilight06:2511:25
Sunrise06:5011:50
Sunset18:4923:49
Evening civil twilight19:1300:13

Current date and time
Zulu (UTC)  26-Sep-2018 09:41:53
Local (UTC-5)  26-Sep-2018 04:41:53
 
METAR
KHBG 
19nm NE 
260853Z AUTO 00000KT 10SM FEW016 SCT075 SCT090 23/22 A3005 RMK AO2 SLP172 T02330222 55007 TSNO
KBXA 
23nm SW 
260915Z AUTO 00000KT 10SM VCTS SCT060 SCT080 25/23 A3003 RMK AO2 LTG DSNT SE AND SW T02500228
K0R0 
24nm NW 
260915Z AUTO 00000KT 10SM SCT080 24/23 A3007 RMK AO2 LTG DSNT SE-SW
KLUL 
28nm N 
260915Z AUTO 17003KT 10SM SCT003 SCT017 OVC100 24/24 A3004 RMK AO2 T02350235
KPIB 
28nm N 
260856Z AUTO 00000KT 7SM CLR 23/23 A3005 RMK AO2 SLP174 6//// T02330228 55007 PNO $
TAF
KHBG 
19nm NE 
260521Z 2606/2706 00000KT P6SM SCT250 FM261400 19003KT P6SM SCT040 BKN100 FM261600 21004KT P6SM VCSH BKN040 BKN070 FM261800 25005KT 4SM RA BR VCTS BKN025CB OVC050 FM262200 30006KT P6SM -RA BKN015 OVC025 FM270200 03003KT P6SM VCSH BKN025 BKN250
NOTAMs
Click for the latest NOTAMs
NOTAMs are issued by the DoD/FAA and will open in a separate window not controlled by AirNav.

 

 
 

Would you like to see your business listed on this page?

 If your business provides an interesting product or service to pilots, flight crews, aircraft, or users of the I H Bass Jr Memorial Airport, you should consider listing it here.  To start the listing process, click on the button below
 
Add a business
 

Other Pages about I H Bass Jr Memorial Airport

Update a link
 
Copyright © AirNav, LLC. All rights reserved. Privacy Policy  Contact